sensor_id;sensor_type;location;lat;lon;timestamp;pressure;altitude;pressure_sealevel;temperature;humidity
74834;BME280;63361;52.384;20.930;2023-01-09T00:02:04;99883.09;;;2.63;98.97
74834;BME280;63361;52.384;20.930;2023-01-09T00:04:30;99883.94;;;2.80;98.74
74834;BME280;63361;52.384;20.930;2023-01-09T00:06:55;99877.97;;;2.73;99.01
74834;BME280;63361;52.384;20.930;2023-01-09T00:09:22;99855.50;;;2.69;99.00
74834;BME280;63361;52.384;20.930;2023-01-09T00:11:48;99857.38;;;2.68;98.89
74834;BME280;63361;52.384;20.930;2023-01-09T00:14:15;99863.09;;;2.77;99.00
74834;BME280;63361;52.384;20.930;2023-01-09T00:16:40;99847.19;;;2.65;98.71
74834;BME280;63361;52.384;20.930;2023-01-09T00:19:06;99844.75;;;2.64;99.18
74834;BME280;63361;52.384;20.930;2023-01-09T00:21:31;99856.88;;;2.71;99.36
74834;BME280;63361;52.384;20.930;2023-01-09T00:23:56;99845.81;;;2.79;98.92
74834;BME280;63361;52.384;20.930;2023-01-09T00:26:22;99852.94;;;2.74;98.54
74834;BME280;63361;52.384;20.930;2023-01-09T00:28:48;99835.81;;;2.70;98.20
74834;BME280;63361;52.384;20.930;2023-01-09T00:31:15;99856.72;;;2.78;98.55
74834;BME280;63361;52.384;20.930;2023-01-09T00:33:44;99867.94;;;2.80;98.93
74834;BME280;63361;52.384;20.930;2023-01-09T00:36:10;99847.19;;;2.65;98.70
74834;BME280;63361;52.384;20.930;2023-01-09T00:38:36;99863.75;;;2.67;99.34
74834;BME280;63361;52.384;20.930;2023-01-09T00:41:03;99869.16;;;2.72;98.70
74834;BME280;63361;52.384;20.930;2023-01-09T00:43:33;99894.22;;;2.88;98.21
74834;BME280;63361;52.384;20.930;2023-01-09T00:46:00;99887.81;;;2.89;98.49
74834;BME280;63361;52.384;20.930;2023-01-09T00:48:26;99900.09;;;2.90;98.17
74834;BME280;63361;52.384;20.930;2023-01-09T00:50:57;99900.88;;;2.91;98.77
74834;BME280;63361;52.384;20.930;2023-01-09T00:53:25;99889.59;;;2.83;98.78
74834;BME280;63361;52.384;20.930;2023-01-09T00:55:51;99892.41;;;2.94;98.39
74834;BME280;63361;52.384;20.930;2023-01-09T00:58:17;99876.97;;;2.79;98.76
74834;BME280;63361;52.384;20.930;2023-01-09T01:00:43;99858.31;;;2.79;98.72
74834;BME280;63361;52.384;20.930;2023-01-09T01:03:08;99860.41;;;2.77;98.87
74834;BME280;63361;52.384;20.930;2023-01-09T01:05:34;99853.56;;;2.81;99.05
74834;BME280;63361;52.384;20.930;2023-01-09T01:08:22;99829.81;;;2.79;99.12
74834;BME280;63361;52.384;20.930;2023-01-09T01:10:48;99831.53;;;2.69;99.10
74834;BME280;63361;52.384;20.930;2023-01-09T01:13:13;99844.66;;;2.75;99.68
74834;BME280;63361;52.384;20.930;2023-01-09T01:15:41;99852.13;;;2.73;99.57
74834;BME280;63361;52.384;20.930;2023-01-09T01:18:08;99840.16;;;2.76;99.71
74834;BME280;63361;52.384;20.930;2023-01-09T01:20:33;99825.06;;;2.65;99.69
74834;BME280;63361;52.384;20.930;2023-01-09T01:22:58;99829.19;;;2.72;100.00
74834;BME280;63361;52.384;20.930;2023-01-09T01:25:24;99814.50;;;2.70;99.68
74834;BME280;63361;52.384;20.930;2023-01-09T01:27:49;99804.47;;;2.60;99.36
74834;BME280;63361;52.384;20.930;2023-01-09T01:30:15;99805.03;;;2.62;99.87
74834;BME280;63361;52.384;20.930;2023-01-09T01:32:41;99842.28;;;2.74;99.75
74834;BME280;63361;52.384;20.930;2023-01-09T01:35:08;99819.91;;;2.75;99.76
74834;BME280;63361;52.384;20.930;2023-01-09T01:37:34;99820.53;;;2.82;99.51
74834;BME280;63361;52.384;20.930;2023-01-09T01:40:00;99823.88;;;2.72;99.74
74834;BME280;63361;52.384;20.930;2023-01-09T01:42:25;99813.34;;;2.66;99.77
74834;BME280;63361;52.384;20.930;2023-01-09T01:45:00;99814.81;;;2.73;100.00
74834;BME280;63361;52.384;20.930;2023-01-09T01:47:34;99811.97;;;2.80;100.00
74834;BME280;63361;52.384;20.930;2023-01-09T01:50:12;99803.75;;;2.81;99.43
74834;BME280;63361;52.384;20.930;2023-01-09T01:52:38;99794.63;;;2.77;99.08
74834;BME280;63361;52.384;20.930;2023-01-09T01:55:07;99808.19;;;2.76;99.60
74834;BME280;63361;52.384;20.930;2023-01-09T01:57:33;99827.63;;;2.93;99.42
74834;BME280;63361;52.384;20.930;2023-01-09T02:00:00;99820.44;;;2.77;99.45
74834;BME280;63361;52.384;20.930;2023-01-09T02:02:29;99837.66;;;2.86;99.60
74834;BME280;63361;52.384;20.930;2023-01-09T02:04:57;99796.75;;;2.59;99.78
74834;BME280;63361;52.384;20.930;2023-01-09T02:07:23;99822.25;;;2.88;99.71
74834;BME280;63361;52.384;20.930;2023-01-09T02:09:49;99817.53;;;2.78;98.88
74834;BME280;63361;52.384;20.930;2023-01-09T02:12:22;99835.81;;;2.87;99.09
74834;BME280;63361;52.384;20.930;2023-01-09T02:15:02;99808.19;;;2.76;98.91
74834;BME280;63361;52.384;20.930;2023-01-09T02:39:51;99827.25;;;2.85;99.53
74834;BME280;63361;52.384;20.930;2023-01-09T02:42:21;99801.88;;;2.82;99.50
74834;BME280;63361;52.384;20.930;2023-01-09T02:44:48;99801.41;;;2.85;99.36
74834;BME280;63361;52.384;20.930;2023-01-09T02:49:39;99795.84;;;2.70;99.62
74834;BME280;63361;52.384;20.930;2023-01-09T03:02:49;99794.78;;;2.88;99.82
74834;BME280;63361;52.384;20.930;2023-01-09T03:05:39;99778.63;;;2.77;100.00
74834;BME280;63361;52.384;20.930;2023-01-09T03:08:16;99786.22;;;2.86;99.77
74834;BME280;63361;52.384;20.930;2023-01-09T03:10:57;99804.63;;;2.87;99.61
74834;BME280;63361;52.384;20.930;2023-01-09T03:13:24;99791.78;;;2.84;99.75
74834;BME280;63361;52.384;20.930;2023-01-09T03:15:54;99779.44;;;2.78;99.42
74834;BME280;63361;52.384;20.930;2023-01-09T03:18:24;99790.19;;;2.83;99.73
74834;BME280;63361;52.384;20.930;2023-01-09T03:20:52;99784.84;;;2.83;99.62
74834;BME280;63361;52.384;20.930;2023-01-09T03:23:18;99770.72;;;2.82;99.74
74834;BME280;63361;52.384;20.930;2023-01-09T03:25:43;99778.22;;;2.86;99.86
74834;BME280;63361;52.384;20.930;2023-01-09T03:28:27;99776.28;;;2.81;99.64
74834;BME280;63361;52.384;20.930;2023-01-09T03:30:53;99773.88;;;2.79;100.00
74834;BME280;63361;52.384;20.930;2023-01-09T03:33:18;99770.28;;;2.91;99.98
74834;BME280;63361;52.384;20.930;2023-01-09T03:35:43;99764.41;;;2.89;99.53
74834;BME280;63361;52.384;20.930;2023-01-09T03:38:09;99763.03;;;2.86;99.61
74834;BME280;63361;52.384;20.930;2023-01-09T03:40:35;99768.25;;;2.98;99.25
74834;BME280;63361;52.384;20.930;2023-01-09T03:43:00;99755.38;;;2.90;99.14
74834;BME280;63361;52.384;20.930;2023-01-09T03:45:25;99742.66;;;2.97;98.85
74834;BME280;63361;52.384;20.930;2023-01-09T03:47:51;99740.44;;;2.89;99.13
74834;BME280;63361;52.384;20.930;2023-01-09T03:50:16;99743.81;;;2.84;99.46
74834;BME280;63361;52.384;20.930;2023-01-09T03:52:41;99724.75;;;2.75;99.84
74834;BME280;63361;52.384;20.930;2023-01-09T03:55:07;99734.06;;;2.73;100.00
74834;BME280;63361;52.384;20.930;2023-01-09T03:57:32;99713.97;;;2.65;99.68
74834;BME280;63361;52.384;20.930;2023-01-09T03:59:58;99711.41;;;2.54;100.00
74834;BME280;63361;52.384;20.930;2023-01-09T04:02:23;99720.22;;;2.54;100.00
74834;BME280;63361;52.384;20.930;2023-01-09T04:04:48;99721.88;;;2.60;100.00
74834;BME280;63361;52.384;20.930;2023-01-09T04:07:14;99712.13;;;2.49;100.00
74834;BME280;63361;52.384;20.930;2023-01-09T04:09:39;99695.81;;;2.45;100.00
74834;BME280;63361;52.384;20.930;2023-01-09T04:12:05;99717.13;;;2.62;100.00
74834;BME280;63361;52.384;20.930;2023-01-09T04:14:30;99703.50;;;2.59;100.00
74834;BME280;63361;52.384;20.930;2023-01-09T04:16:55;99699.84;;;2.65;100.00
74834;BME280;63361;52.384;20.930;2023-01-09T04:19:21;99710.81;;;2.68;100.00
74834;BME280;63361;52.384;20.930;2023-01-09T04:21:46;99693.31;;;2.72;100.00
74834;BME280;63361;52.384;20.930;2023-01-09T04:24:11;99702.66;;;2.75;100.00
74834;BME280;63361;52.384;20.930;2023-01-09T04:26:36;99696.00;;;2.77;100.00
74834;BME280;63361;52.384;20.930;2023-01-09T04:29:02;99710.53;;;2.87;99.67
74834;BME280;63361;52.384;20.930;2023-01-09T04:31:27;99702.88;;;2.90;99.50
74834;BME280;63361;52.384;20.930;2023-01-09T04:33:52;99713.00;;;2.93;99.75
74834;BME280;63361;52.384;20.930;2023-01-09T04:36:18;99682.53;;;2.84;99.79
74834;BME280;63361;52.384;20.930;2023-01-09T04:38:43;99703.41;;;2.92;99.67
74834;BME280;63361;52.384;20.930;2023-01-09T04:41:08;99696.78;;;2.95;99.39
74834;BME280;63361;52.384;20.930;2023-01-09T04:43:34;99701.06;;;2.96;99.52
74834;BME280;63361;52.384;20.930;2023-01-09T04:45:59;99706.94;;;2.98;99.26
74834;BME280;63361;52.384;20.930;2023-01-09T04:48:25;99695.81;;;3.01;99.37
74834;BME280;63361;52.384;20.930;2023-01-09T04:50:51;99702.19;;;3.00;99.14
74834;BME280;63361;52.384;20.930;2023-01-09T04:53:16;99700.81;;;2.97;99.42
74834;BME280;63361;52.384;20.930;2023-01-09T04:55:41;99711.06;;;3.05;99.19
74834;BME280;63361;52.384;20.930;2023-01-09T04:58:07;99701.94;;;3.01;99.32
74834;BME280;63361;52.384;20.930;2023-01-09T05:00:32;99699.59;;;3.05;99.35
74834;BME280;63361;52.384;20.930;2023-01-09T05:02:58;99703.59;;;3.07;98.94
74834;BME280;63361;52.384;20.930;2023-01-09T05:05:23;99707.06;;;3.08;99.32
74834;BME280;63361;52.384;20.930;2023-01-09T05:07:48;99693.13;;;3.01;99.61
74834;BME280;63361;52.384;20.930;2023-01-09T05:10:14;99688.06;;;2.99;99.25
74834;BME280;63361;52.384;20.930;2023-01-09T05:12:39;99683.22;;;2.96;99.63
74834;BME280;63361;52.384;20.930;2023-01-09T05:15:06;99685.69;;;3.03;99.31
74834;BME280;63361;52.384;20.930;2023-01-09T05:17:32;99688.66;;;3.06;98.69
74834;BME280;63361;52.384;20.930;2023-01-09T05:19:57;99668.81;;;2.97;99.37
74834;BME280;63361;52.384;20.930;2023-01-09T05:22:22;99654.53;;;3.03;99.28
74834;BME280;63361;52.384;20.930;2023-01-09T05:24:48;99669.16;;;3.01;98.86
74834;BME280;63361;52.384;20.930;2023-01-09T05:27:13;99676.91;;;3.02;99.78
74834;BME280;63361;52.384;20.930;2023-01-09T05:29:38;99676.34;;;3.00;99.70
74834;BME280;63361;52.384;20.930;2023-01-09T05:32:04;99670.44;;;2.98;99.48
74834;BME280;63361;52.384;20.930;2023-01-09T05:34:29;99659.53;;;3.00;99.46
74834;BME280;63361;52.384;20.930;2023-01-09T05:36:54;99668.13;;;3.07;99.11
74834;BME280;63361;52.384;20.930;2023-01-09T05:39:20;99642.28;;;3.07;99.50
74834;BME280;63361;52.384;20.930;2023-01-09T05:41:45;99653.25;;;3.11;99.25
74834;BME280;63361;52.384;20.930;2023-01-09T05:44:11;99654.31;;;3.10;99.27
74834;BME280;63361;52.384;20.930;2023-01-09T05:46:36;99639.56;;;3.02;99.42
74834;BME280;63361;52.384;20.930;2023-01-09T05:49:01;99633.06;;;2.93;99.84
74834;BME280;63361;52.384;20.930;2023-01-09T05:51:27;99645.56;;;2.93;99.80
74834;BME280;63361;52.384;20.930;2023-01-09T05:53:52;99641.28;;;2.92;99.49
74834;BME280;63361;52.384;20.930;2023-01-09T05:56:18;99607.53;;;2.75;100.00
74834;BME280;63361;52.384;20.930;2023-01-09T05:58:43;99600.41;;;2.81;99.91
74834;BME280;63361;52.384;20.930;2023-01-09T06:01:08;99600.59;;;2.74;99.90
74834;BME280;63361;52.384;20.930;2023-01-09T06:03:34;99648.81;;;3.16;99.97
74834;BME280;63361;52.384;20.930;2023-01-09T06:05:59;99643.91;;;3.08;99.88
74834;BME280;63361;52.384;20.930;2023-01-09T06:08:24;99648.41;;;3.08;99.72
74834;BME280;63361;52.384;20.930;2023-01-09T06:10:50;99645.47;;;3.04;99.54
74834;BME280;63361;52.384;20.930;2023-01-09T06:13:15;99647.34;;;3.04;99.87
74834;BME280;63361;52.384;20.930;2023-01-09T06:15:41;99636.09;;;3.02;99.96
74834;BME280;63361;52.384;20.930;2023-01-09T06:18:06;99649.19;;;3.03;100.00
74834;BME280;63361;52.384;20.930;2023-01-09T06:20:32;99643.84;;;3.03;100.00
74834;BME280;63361;52.384;20.930;2023-01-09T06:22:57;99605.59;;;2.93;100.00
74834;BME280;63361;52.384;20.930;2023-01-09T06:25:23;99597.75;;;2.81;100.00
74834;BME280;63361;52.384;20.930;2023-01-09T06:27:48;99599.91;;;2.84;100.00
74834;BME280;63361;52.384;20.930;2023-01-09T06:30:16;99620.03;;;2.97;100.00
74834;BME280;63361;52.384;20.930;2023-01-09T06:32:42;99618.00;;;3.04;99.95
74834;BME280;63361;52.384;20.930;2023-01-09T06:35:07;99603.97;;;2.92;100.00
74834;BME280;63361;52.384;20.930;2023-01-09T06:37:33;99601.59;;;2.90;100.00
74834;BME280;63361;52.384;20.930;2023-01-09T06:39:58;99625.06;;;2.93;100.00
74834;BME280;63361;52.384;20.930;2023-01-09T06:42:23;99628.09;;;3.02;100.00
74834;BME280;63361;52.384;20.930;2023-01-09T06:44:49;99610.88;;;2.88;100.00
74834;BME280;63361;52.384;20.930;2023-01-09T06:47:17;99614.13;;;2.90;100.00
74834;BME280;63361;52.384;20.930;2023-01-09T06:49:43;99608.47;;;2.86;100.00
74834;BME280;63361;52.384;20.930;2023-01-09T06:52:08;99618.44;;;2.96;100.00
74834;BME280;63361;52.384;20.930;2023-01-09T06:54:34;99640.31;;;3.20;100.00
74834;BME280;63361;52.384;20.930;2023-01-09T06:57:00;99635.00;;;3.25;100.00
74834;BME280;63361;52.384;20.930;2023-01-09T06:59:25;99572.94;;;2.80;100.00
74834;BME280;63361;52.384;20.930;2023-01-09T07:01:51;99595.97;;;2.92;100.00
74834;BME280;63361;52.384;20.930;2023-01-09T07:04:16;99622.06;;;3.11;100.00
74834;BME280;63361;52.384;20.930;2023-01-09T07:06:42;99601.03;;;2.88;100.00
74834;BME280;63361;52.384;20.930;2023-01-09T07:09:08;99575.50;;;2.70;100.00
74834;BME280;63361;52.384;20.930;2023-01-09T07:11:38;99593.78;;;2.83;100.00
74834;BME280;63361;52.384;20.930;2023-01-09T07:14:03;99584.97;;;2.83;100.00
74834;BME280;63361;52.384;20.930;2023-01-09T07:16:29;99608.41;;;3.03;100.00
74834;BME280;63361;52.384;20.930;2023-01-09T07:18:54;99607.88;;;3.06;100.00
74834;BME280;63361;52.384;20.930;2023-01-09T07:21:19;99616.84;;;3.22;100.00
74834;BME280;63361;52.384;20.930;2023-01-09T07:23:45;99589.28;;;3.11;100.00
74834;BME280;63361;52.384;20.930;2023-01-09T07:26:10;99582.16;;;3.22;99.92
74834;BME280;63361;52.384;20.930;2023-01-09T07:28:35;99601.66;;;3.49;99.03
74834;BME280;63361;52.384;20.930;2023-01-09T07:31:00;99602.59;;;3.65;98.97
74834;BME280;63361;52.384;20.930;2023-01-09T07:33:28;99583.88;;;3.60;98.04
74834;BME280;63361;52.384;20.930;2023-01-09T07:35:53;99603.81;;;3.52;98.43
74834;BME280;63361;52.384;20.930;2023-01-09T07:38:19;99573.50;;;3.36;98.67
74834;BME280;63361;52.384;20.930;2023-01-09T07:40:44;99590.69;;;3.45;98.79
74834;BME280;63361;52.384;20.930;2023-01-09T07:43:09;99581.00;;;3.39;98.72
74834;BME280;63361;52.384;20.930;2023-01-09T07:45:35;99602.00;;;3.58;98.87
74834;BME280;63361;52.384;20.930;2023-01-09T07:48:00;99552.53;;;3.45;98.07
74834;BME280;63361;52.384;20.930;2023-01-09T07:50:25;99588.72;;;3.68;97.97
74834;BME280;63361;52.384;20.930;2023-01-09T07:52:51;99560.16;;;3.63;96.90
74834;BME280;63361;52.384;20.930;2023-01-09T07:55:16;99579.50;;;3.80;96.93
74834;BME280;63361;52.384;20.930;2023-01-09T07:57:41;99576.31;;;3.83;96.26
74834;BME280;63361;52.384;20.930;2023-01-09T08:00:07;99582.34;;;4.06;96.13
74834;BME280;63361;52.384;20.930;2023-01-09T08:02:35;99572.72;;;4.05;96.22
74834;BME280;63361;52.384;20.930;2023-01-09T08:05:01;99579.00;;;4.31;95.25
74834;BME280;63361;52.384;20.930;2023-01-09T08:07:26;99580.63;;;4.27;95.34
74834;BME280;63361;52.384;20.930;2023-01-09T08:09:52;99596.91;;;4.25;95.01
74834;BME280;63361;52.384;20.930;2023-01-09T08:12:17;99575.75;;;4.18;95.30
74834;BME280;63361;52.384;20.930;2023-01-09T08:14:42;99551.97;;;4.17;94.55
74834;BME280;63361;52.384;20.930;2023-01-09T08:17:08;99582.88;;;4.50;94.48
74834;BME280;63361;52.384;20.930;2023-01-09T08:19:35;99549.53;;;4.68;92.37
74834;BME280;63361;52.384;20.930;2023-01-09T08:22:00;99586.31;;;5.23;90.71
74834;BME280;63361;52.384;20.930;2023-01-09T08:24:25;99564.13;;;5.17;90.79
74834;BME280;63361;52.384;20.930;2023-01-09T08:26:51;99528.97;;;4.78;90.55
74834;BME280;63361;52.384;20.930;2023-01-09T08:29:16;99567.19;;;4.74;91.01
74834;BME280;63361;52.384;20.930;2023-01-09T08:31:41;99572.06;;;4.92;91.04
74834;BME280;63361;52.384;20.930;2023-01-09T08:34:06;99555.16;;;4.71;91.29
74834;BME280;63361;52.384;20.930;2023-01-09T08:36:32;99542.41;;;4.88;91.07
74834;BME280;63361;52.384;20.930;2023-01-09T08:38:57;99580.94;;;5.08;91.18
74834;BME280;63361;52.384;20.930;2023-01-09T08:41:22;99568.81;;;4.80;91.62
74834;BME280;63361;52.384;20.930;2023-01-09T08:44:06;99558.16;;;4.90;91.42
74834;BME280;63361;52.384;20.930;2023-01-09T08:46:51;99558.31;;;4.53;92.38
74834;BME280;63361;52.384;20.930;2023-01-09T08:49:36;99554.59;;;4.64;92.53
74834;BME280;63361;52.384;20.930;2023-01-09T08:52:03;99570.69;;;4.79;92.58
74834;BME280;63361;52.384;20.930;2023-01-09T08:54:29;99561.13;;;4.99;91.00
74834;BME280;63361;52.384;20.930;2023-01-09T08:56:54;99528.53;;;5.02;89.40
74834;BME280;63361;52.384;20.930;2023-01-09T08:59:19;99547.81;;;5.34;88.86
74834;BME280;63361;52.384;20.930;2023-01-09T09:01:45;99530.16;;;5.58;87.51
74834;BME280;63361;52.384;20.930;2023-01-09T09:04:10;99557.72;;;6.05;85.79
74834;BME280;63361;52.384;20.930;2023-01-09T09:06:35;99523.19;;;5.57;86.80
74834;BME280;63361;52.384;20.930;2023-01-09T09:09:01;99524.00;;;5.48;87.39
74834;BME280;63361;52.384;20.930;2023-01-09T09:11:32;99522.41;;;5.47;87.73
74834;BME280;63361;52.384;20.930;2023-01-09T09:13:58;99541.13;;;5.62;87.55
74834;BME280;63361;52.384;20.930;2023-01-09T09:16:24;99507.13;;;5.12;88.68
74834;BME280;63361;52.384;20.930;2023-01-09T09:18:50;99556.38;;;5.36;89.49
74834;BME280;63361;52.384;20.930;2023-01-09T09:21:16;99538.16;;;5.23;88.81
74834;BME280;63361;52.384;20.930;2023-01-09T09:23:41;99545.66;;;5.36;89.22
74834;BME280;63361;52.384;20.930;2023-01-09T09:26:08;99510.56;;;4.92;89.54
74834;BME280;63361;52.384;20.930;2023-01-09T09:28:33;99483.25;;;4.70;90.51
74834;BME280;63361;52.384;20.930;2023-01-09T09:30:59;99533.56;;;4.93;91.30
74834;BME280;63361;52.384;20.930;2023-01-09T09:33:24;99477.94;;;4.85;90.29
74834;BME280;63361;52.384;20.930;2023-01-09T09:35:49;99516.78;;;5.18;89.77
74834;BME280;63361;52.384;20.930;2023-01-09T09:38:15;99491.31;;;5.05;89.98
74834;BME280;63361;52.384;20.930;2023-01-09T09:41:09;99510.88;;;5.61;88.85
74834;BME280;63361;52.384;20.930;2023-01-09T09:44:26;99503.94;;;5.45;89.10
74834;BME280;63361;52.384;20.930;2023-01-09T09:53:06;99512.75;;;5.25;89.15
74834;BME280;63361;52.384;20.930;2023-01-09T09:55:37;99493.22;;;5.30;88.65
74834;BME280;63361;52.384;20.930;2023-01-09T09:58:17;99503.13;;;5.14;89.76
74834;BME280;63361;52.384;20.930;2023-01-09T10:00:47;99496.44;;;5.02;90.40
74834;BME280;63361;52.384;20.930;2023-01-09T10:05:50;99507.38;;;5.10;90.97
74834;BME280;63361;52.384;20.930;2023-01-09T10:08:29;99500.97;;;5.06;91.10
74834;BME280;63361;52.384;20.930;2023-01-09T10:11:00;99485.16;;;4.94;90.52
74834;BME280;63361;52.384;20.930;2023-01-09T10:13:26;99474.19;;;4.81;91.47
74834;BME280;63361;52.384;20.930;2023-01-09T10:16:34;99477.44;;;5.23;89.99
74834;BME280;63361;52.384;20.930;2023-01-09T10:30:41;99486.78;;;5.36;89.14
74834;BME280;63361;52.384;20.930;2023-01-09T10:33:23;99497.25;;;5.27;90.00
74834;BME280;63361;52.384;20.930;2023-01-09T10:38:32;99488.13;;;5.39;89.82
74834;BME280;63361;52.384;20.930;2023-01-09T10:41:03;99486.28;;;5.44;89.56
74834;BME280;63361;52.384;20.930;2023-01-09T10:43:41;99469.94;;;5.61;88.53
74834;BME280;63361;52.384;20.930;2023-01-09T10:46:15;99472.09;;;5.44;89.11
74834;BME280;63361;52.384;20.930;2023-01-09T10:48:44;99495.63;;;5.42;89.46
74834;BME280;63361;52.384;20.930;2023-01-09T10:51:18;99490.53;;;5.40;89.70
74834;BME280;63361;52.384;20.930;2023-01-09T10:53:50;99478.25;;;5.14;90.06
74834;BME280;63361;52.384;20.930;2023-01-09T10:56:26;99481.19;;;5.12;91.31
74834;BME280;63361;52.384;20.930;2023-01-09T10:58:53;99484.38;;;4.99;92.16
74834;BME280;63361;52.384;20.930;2023-01-09T11:01:31;99438.59;;;4.60;93.65
74834;BME280;63361;52.384;20.930;2023-01-09T11:03:57;99406.75;;;4.43;93.40
74834;BME280;63361;52.384;20.930;2023-01-09T11:06:39;99388.31;;;4.27;94.64
74834;BME280;63361;52.384;20.930;2023-01-09T11:09:08;99445.56;;;4.71;94.99
74834;BME280;63361;52.384;20.930;2023-01-09T11:11:42;99446.09;;;4.63;95.88
74834;BME280;63361;52.384;20.930;2023-01-09T11:14:35;99459.47;;;4.68;95.08
74834;BME280;63361;52.384;20.930;2023-01-09T11:17:02;99451.97;;;4.65;95.93
74834;BME280;63361;52.384;20.930;2023-01-09T11:19:30;99422.28;;;4.41;97.29
74834;BME280;63361;52.384;20.930;2023-01-09T11:22:16;99417.94;;;4.30;97.94
74834;BME280;63361;52.384;20.930;2023-01-09T11:24:42;99434.28;;;4.49;98.34
74834;BME280;63361;52.384;20.930;2023-01-09T11:27:22;99433.25;;;4.60;99.44
74834;BME280;63361;52.384;20.930;2023-01-09T11:30:14;99434.63;;;4.73;99.54
74834;BME280;63361;52.384;20.930;2023-01-09T11:32:41;99391.53;;;4.44;99.65
74834;BME280;63361;52.384;20.930;2023-01-09T11:35:35;99423.63;;;4.64;100.00
74834;BME280;63361;52.384;20.930;2023-01-09T11:38:09;99416.97;;;4.67;100.00
74834;BME280;63361;52.384;20.930;2023-01-09T11:40:44;99399.31;;;4.55;100.00
74834;BME280;63361;52.384;20.930;2023-01-09T11:43:16;99414.78;;;4.58;100.00
74834;BME280;63361;52.384;20.930;2023-01-09T11:45:49;99372.31;;;4.42;100.00
74834;BME280;63361;52.384;20.930;2023-01-09T11:48:34;99397.97;;;4.53;100.00
74834;BME280;63361;52.384;20.930;2023-01-09T11:51:03;99356.22;;;4.21;100.00
74834;BME280;63361;52.384;20.930;2023-01-09T11:53:43;99380.06;;;4.48;100.00
74834;BME280;63361;52.384;20.930;2023-01-09T11:56:11;99380.03;;;4.38;100.00
74834;BME280;63361;52.384;20.930;2023-01-09T11:58:39;99380.31;;;4.42;100.00
74834;BME280;63361;52.384;20.930;2023-01-09T12:07:01;99391.28;;;4.50;100.00
74834;BME280;63361;52.384;20.930;2023-01-09T12:12:33;99378.44;;;4.47;100.00
74834;BME280;63361;52.384;20.930;2023-01-09T12:18:05;99375.22;;;4.45;100.00
74834;BME280;63361;52.384;20.930;2023-01-09T12:26:24;99364.03;;;4.53;100.00
74834;BME280;63361;52.384;20.930;2023-01-09T12:35:05;99369.91;;;4.76;100.00
74834;BME280;63361;52.384;20.930;2023-01-09T12:51:55;99327.69;;;4.57;100.00
74834;BME280;63361;52.384;20.930;2023-01-09T12:57:04;99344.81;;;4.87;100.00
74834;BME280;63361;52.384;20.930;2023-01-09T13:00:01;99341.88;;;4.83;100.00
74834;BME280;63361;52.384;20.930;2023-01-09T13:02:34;99358.69;;;4.89;100.00
74834;BME280;63361;52.384;20.930;2023-01-09T13:05:33;99340.25;;;4.98;100.00
74834;BME280;63361;52.384;20.930;2023-01-09T13:10:48;99337.84;;;4.96;100.00
74834;BME280;63361;52.384;20.930;2023-01-09T13:13:19;99312.72;;;4.87;100.00
74834;BME280;63361;52.384;20.930;2023-01-09T13:15:57;99329.81;;;5.01;100.00
74834;BME280;63361;52.384;20.930;2023-01-09T13:18:42;99322.03;;;5.05;100.00
74834;BME280;63361;52.384;20.930;2023-01-09T13:21:11;99298.25;;;5.03;100.00
74834;BME280;63361;52.384;20.930;2023-01-09T13:26:30;99272.06;;;4.95;100.00
74834;BME280;63361;52.384;20.930;2023-01-09T13:29:04;99276.84;;;5.08;100.00
74834;BME280;63361;52.384;20.930;2023-01-09T13:34:22;99285.16;;;5.02;100.00
74834;BME280;63361;52.384;20.930;2023-01-09T13:36:54;99305.16;;;5.24;100.00
74834;BME280;63361;52.384;20.930;2023-01-09T13:39:25;99310.75;;;5.28;100.00
74834;BME280;63361;52.384;20.930;2023-01-09T13:42:05;99293.69;;;5.19;100.00
74834;BME280;63361;52.384;20.930;2023-01-09T13:44:52;99299.00;;;5.24;100.00
74834;BME280;63361;52.384;20.930;2023-01-09T13:47:22;99277.38;;;5.10;100.00
74834;BME280;63361;52.384;20.930;2023-01-09T13:59:43;99298.47;;;5.32;100.00
74834;BME280;63361;52.384;20.930;2023-01-09T14:05:12;99303.22;;;5.45;100.00
74834;BME280;63361;52.384;20.930;2023-01-09T14:07:41;99301.34;;;5.41;100.00
74834;BME280;63361;52.384;20.930;2023-01-09T14:10:34;99307.25;;;5.43;100.00
74834;BME280;63361;52.384;20.930;2023-01-09T14:13:06;99294.94;;;5.37;100.00
74834;BME280;63361;52.384;20.930;2023-01-09T14:15:43;99267.19;;;5.17;100.00
74834;BME280;63361;52.384;20.930;2023-01-09T14:20:55;99301.63;;;5.44;100.00
74834;BME280;63361;52.384;20.930;2023-01-09T14:25:47;99278.41;;;5.29;100.00
74834;BME280;63361;52.384;20.930;2023-01-09T14:28:24;99300.81;;;5.49;100.00
74834;BME280;63361;52.384;20.930;2023-01-09T14:43:52;99304.56;;;5.48;100.00
74834;BME280;63361;52.384;20.930;2023-01-09T14:46:21;99300.03;;;5.43;100.00
74834;BME280;63361;52.384;20.930;2023-01-09T14:51:25;99301.63;;;5.39;100.00
74834;BME280;63361;52.384;20.930;2023-01-09T14:53:52;99308.25;;;5.57;100.00
74834;BME280;63361;52.384;20.930;2023-01-09T14:56:25;99313.88;;;5.50;100.00
74834;BME280;63361;52.384;20.930;2023-01-09T14:59:11;99310.69;;;5.53;100.00
74834;BME280;63361;52.384;20.930;2023-01-09T15:01:39;99319.25;;;5.55;100.00
74834;BME280;63361;52.384;20.930;2023-01-09T15:04:20;99331.81;;;5.60;100.00
74834;BME280;63361;52.384;20.930;2023-01-09T15:06:47;99290.66;;;5.46;100.00
74834;BME280;63361;52.384;20.930;2023-01-09T15:11:46;99323.78;;;5.65;100.00
74834;BME280;63361;52.384;20.930;2023-01-09T15:16:50;99319.50;;;5.64;100.00
74834;BME280;63361;52.384;20.930;2023-01-09T15:19:16;99319.72;;;5.68;100.00
74834;BME280;63361;52.384;20.930;2023-01-09T15:21:55;99322.66;;;5.66;100.00
74834;BME280;63361;52.384;20.930;2023-01-09T15:24:22;99337.09;;;5.80;100.00
74834;BME280;63361;52.384;20.930;2023-01-09T15:26:57;99324.28;;;5.67;100.00
74834;BME280;63361;52.384;20.930;2023-01-09T15:29:24;99331.75;;;5.70;100.00
74834;BME280;63361;52.384;20.930;2023-01-09T15:31:59;99338.44;;;5.73;100.00
74834;BME280;63361;52.384;20.930;2023-01-09T15:34:25;99313.06;;;5.65;100.00